createdAt,value
2017-02-23T00:00:34.430Z,933.88
2017-02-23T00:01:47.256Z,933.89
2017-02-23T00:02:59.841Z,933.93
2017-02-23T00:04:12.435Z,933.91
2017-02-23T00:05:25.582Z,933.93
2017-02-23T00:06:38.738Z,933.96
2017-02-23T00:07:51.331Z,933.96
2017-02-23T00:09:04.505Z,933.97
2017-02-23T00:10:17.080Z,933.99
2017-02-23T00:11:30.219Z,933.98
2017-02-23T00:12:42.816Z,933.96
2017-02-23T00:13:55.951Z,934.01
2017-02-23T00:15:09.082Z,934.06
2017-02-23T00:16:22.214Z,934.04
2017-02-23T00:17:35.345Z,934.1
2017-02-23T00:18:48.501Z,934.1
2017-02-23T00:20:01.653Z,934.1
2017-02-23T00:21:14.238Z,934.15
2017-02-23T00:22:27.400Z,934.14
2017-02-23T00:23:40.793Z,934.17
2017-02-23T00:24:53.951Z,934.24
2017-02-23T00:26:07.115Z,934.26
2017-02-23T00:27:19.706Z,934.25
2017-02-23T00:28:32.852Z,934.31
2017-02-23T00:29:45.692Z,934.32
2017-02-23T00:30:58.276Z,934.31
2017-02-23T00:33:37.985Z,934.33
2017-02-23T00:34:51.119Z,934.34
2017-02-23T00:36:03.723Z,934.37
2017-02-23T00:37:29.752Z,934.38
2017-02-23T00:38:42.886Z,934.4
2017-02-23T00:39:56.057Z,934.39
2017-02-23T00:41:09.195Z,934.44
2017-02-23T00:42:22.348Z,934.42
2017-02-23T00:43:35.487Z,934.38
2017-02-23T00:44:48.633Z,934.4
2017-02-23T00:46:01.771Z,934.42
2017-02-23T00:47:14.354Z,934.42
2017-02-23T00:48:27.509Z,934.39
2017-02-23T00:49:40.910Z,934.42
2017-02-23T00:50:54.063Z,934.42
2017-02-23T00:52:07.220Z,934.46
2017-02-23T00:53:20.393Z,934.43
2017-02-23T00:54:33.528Z,934.49
2017-02-23T00:55:46.130Z,934.48
2017-02-23T00:56:59.300Z,934.51
2017-02-23T00:58:12.482Z,934.53
2017-02-23T00:59:25.638Z,934.54
2017-02-23T01:00:38.800Z,934.58
2017-02-23T01:01:51.987Z,934.57
2017-02-23T01:03:05.158Z,934.57
2017-02-23T01:05:58.412Z,934.53
2017-02-23T01:07:11.549Z,934.57
2017-02-23T01:08:24.700Z,934.56
2017-02-23T01:09:37.860Z,934.56
2017-02-23T01:10:51.263Z,934.52
2017-02-23T01:12:04.725Z,934.55
2017-02-23T01:13:31.886Z,934.59
2017-02-23T01:14:45.042Z,934.62
2017-02-23T01:16:12.513Z,934.67
2017-02-23T01:17:25.683Z,934.63
2017-02-23T01:18:38.827Z,934.64
2017-02-23T01:19:51.988Z,934.65
2017-02-23T01:21:05.202Z,934.66
2017-02-23T01:22:17.903Z,934.65
2017-02-23T01:23:31.241Z,934.66
2017-02-23T01:24:44.430Z,934.64
2017-02-23T01:25:57.651Z,934.66
2017-02-23T01:27:10.806Z,934.69
2017-02-23T01:28:23.432Z,934.65
2017-02-23T01:29:36.723Z,934.68
2017-02-23T01:30:50.002Z,934.68
2017-02-23T01:32:03.302Z,934.72
2017-02-23T01:33:15.709Z,934.73
2017-02-23T01:34:29.002Z,934.71
2017-02-23T01:35:42.288Z,934.75
2017-02-23T01:36:55.574Z,934.74
2017-02-23T01:38:08.566Z,934.76
2017-02-23T01:39:21.858Z,934.72
2017-02-23T01:40:35.130Z,934.69
2017-02-23T01:41:48.411Z,934.72
2017-02-23T01:43:01.699Z,934.71
2017-02-23T01:44:14.148Z,934.73
2017-02-23T01:45:26.876Z,934.66
2017-02-23T01:46:40.152Z,934.64
2017-02-23T01:47:53.421Z,934.62
2017-02-23T01:49:06.982Z,934.63
2017-02-23T01:50:20.245Z,934.62
2017-02-23T01:51:33.552Z,934.59
2017-02-23T01:52:46.856Z,934.63
2017-02-23T01:54:00.144Z,934.59
2017-02-23T01:55:13.421Z,934.61
2017-02-23T01:56:26.704Z,934.6
2017-02-23T01:57:40.004Z,934.59
2017-02-23T01:58:53.322Z,934.63
2017-02-23T02:00:06.849Z,934.65
2017-02-23T02:01:20.134Z,934.64
2017-02-23T02:02:33.400Z,934.65
2017-02-23T02:03:46.685Z,934.62
2017-02-23T02:04:59.997Z,934.61
2017-02-23T02:06:13.311Z,934.58
2017-02-23T02:07:26.575Z,934.58
2017-02-23T02:08:39.869Z,934.57
2017-02-23T02:09:52.014Z,934.6
2017-02-23T02:11:05.324Z,934.61
2017-02-23T02:12:18.049Z,934.61
2017-02-23T02:13:31.320Z,934.62
2017-02-23T02:14:44.459Z,934.58
2017-02-23T02:15:57.597Z,934.62
2017-02-23T02:17:11.041Z,934.6
2017-02-23T02:18:24.181Z,934.62
2017-02-23T02:19:37.339Z,934.61
2017-02-23T02:20:49.924Z,934.64
2017-02-23T02:22:03.074Z,934.66
2017-02-23T02:23:15.665Z,934.64
2017-02-23T02:24:28.793Z,934.62
2017-02-23T02:25:41.960Z,934.63
2017-02-23T02:26:54.538Z,934.64
2017-02-23T02:28:06.858Z,934.63
2017-02-23T02:29:18.882Z,934.63
2017-02-23T02:30:32.011Z,934.65
2017-02-23T02:31:45.173Z,934.64
2017-02-23T02:32:58.564Z,934.64
2017-02-23T02:34:11.703Z,934.66
2017-02-23T02:35:24.864Z,934.61
2017-02-23T02:36:38.031Z,934.63
2017-02-23T02:37:51.181Z,934.64
2017-02-23T02:39:04.328Z,934.64
2017-02-23T02:40:17.459Z,934.6
2017-02-23T02:41:30.635Z,934.61
2017-02-23T02:42:57.786Z,934.63
2017-02-23T02:44:10.945Z,934.63
2017-02-23T02:45:23.541Z,934.61
2017-02-23T02:46:36.693Z,934.58
2017-02-23T02:47:49.828Z,934.55
2017-02-23T02:49:03.294Z,934.55
2017-02-23T02:50:16.453Z,934.51
2017-02-23T02:51:29.599Z,934.48
2017-02-23T02:52:42.752Z,934.45
2017-02-23T02:53:56.136Z,934.49
2017-02-23T02:55:09.296Z,934.49
2017-02-23T02:56:22.435Z,934.49
2017-02-23T02:57:35.573Z,934.49
2017-02-23T02:58:48.726Z,934.49
2017-02-23T03:00:01.859Z,934.48
2017-02-23T03:02:41.617Z,934.43
2017-02-23T03:03:54.745Z,934.41
2017-02-23T03:05:07.872Z,934.42
2017-02-23T03:06:20.455Z,934.4
2017-02-23T03:07:47.597Z,934.38
2017-02-23T03:09:00.734Z,934.37
2017-02-23T03:10:13.613Z,934.39
2017-02-23T03:11:26.208Z,934.44
2017-02-23T03:12:39.336Z,934.39
2017-02-23T03:13:51.919Z,934.37
2017-02-23T03:15:05.332Z,934.37
2017-02-23T03:16:18.488Z,934.38
2017-02-23T03:17:31.642Z,934.37
2017-02-23T03:18:44.786Z,934.37
2017-02-23T03:19:57.910Z,934.36
2017-02-23T03:21:11.051Z,934.39
2017-02-23T03:22:24.196Z,934.37
2017-02-23T03:23:37.345Z,934.36
2017-02-23T03:24:50.496Z,934.37
2017-02-23T03:26:03.635Z,934.35
2017-02-23T03:27:16.782Z,934.32
2017-02-23T03:28:29.362Z,934.29
2017-02-23T03:29:42.498Z,934.28
2017-02-23T03:30:55.655Z,934.28
2017-02-23T03:32:09.094Z,934.23
2017-02-23T03:33:21.671Z,934.24
2017-02-23T03:34:34.819Z,934.21
2017-02-23T03:35:47.949Z,934.22
2017-02-23T03:37:01.089Z,934.25
2017-02-23T03:38:13.680Z,934.24
2017-02-23T03:39:26.820Z,934.25
2017-02-23T03:40:39.962Z,934.24
2017-02-23T03:41:53.111Z,934.22
2017-02-23T03:43:06.596Z,934.24
2017-02-23T03:44:19.887Z,934.31
2017-02-23T03:45:32.588Z,934.29
2017-02-23T03:46:45.862Z,934.27
2017-02-23T03:47:59.140Z,934.29
2017-02-23T03:49:12.432Z,934.27
2017-02-23T03:50:25.709Z,934.25
2017-02-23T03:51:38.992Z,934.26
2017-02-23T03:52:51.712Z,934.26
2017-02-23T03:54:05.017Z,934.24
2017-02-23T03:55:18.346Z,934.28
2017-02-23T03:56:31.048Z,934.25
2017-02-23T03:57:58.308Z,934.23
2017-02-23T03:59:11.028Z,934.21
2017-02-23T04:00:24.307Z,934.19
2017-02-23T04:01:37.585Z,934.2
2017-02-23T04:04:17.002Z,934.2
2017-02-23T04:05:30.312Z,934.18
2017-02-23T04:06:43.615Z,934.24
2017-02-23T04:07:56.885Z,934.22
2017-02-23T04:09:24.423Z,934.17
2017-02-23T04:10:37.699Z,934.14
2017-02-23T04:11:50.970Z,934.11
2017-02-23T04:13:04.242Z,934.16
2017-02-23T04:14:17.516Z,934.13
2017-02-23T04:15:30.795Z,934.11
2017-02-23T04:16:44.066Z,934.11
2017-02-23T04:17:56.801Z,934.13
2017-02-23T04:19:10.113Z,934.12
2017-02-23T04:20:23.116Z,934.04
2017-02-23T04:21:36.387Z,934.01
2017-02-23T04:22:49.686Z,933.99
2017-02-23T04:24:16.950Z,933.97
2017-02-23T04:25:44.480Z,933.96
2017-02-23T04:26:57.757Z,933.94
2017-02-23T04:28:10.460Z,933.95
2017-02-23T04:29:23.160Z,933.96
2017-02-23T04:30:36.428Z,933.93
2017-02-23T04:31:49.140Z,933.9
2017-02-23T04:33:01.837Z,933.92
2017-02-23T04:34:14.556Z,933.81
2017-02-23T04:35:28.100Z,933.79
2017-02-23T04:36:41.386Z,933.79
2017-02-23T04:37:54.664Z,933.83
2017-02-23T04:39:07.962Z,933.78
2017-02-23T04:40:20.105Z,933.77
2017-02-23T04:41:33.371Z,933.75
2017-02-23T04:42:46.653Z,933.73
2017-02-23T04:43:59.937Z,933.72
2017-02-23T04:45:12.651Z,933.79
2017-02-23T04:46:25.357Z,933.71
2017-02-23T04:47:38.058Z,933.71
2017-02-23T04:48:50.756Z,933.74
2017-02-23T04:50:04.034Z,933.75
2017-02-23T04:51:17.616Z,933.75
2017-02-23T04:52:30.897Z,933.71
2017-02-23T04:53:44.190Z,933.69
2017-02-23T04:54:56.888Z,933.68
2017-02-23T04:56:09.030Z,933.7
2017-02-23T04:57:22.304Z,933.66
2017-02-23T04:58:35.568Z,933.67
2017-02-23T04:59:48.880Z,933.66
2017-02-23T05:01:02.151Z,933.66
2017-02-23T05:02:14.853Z,933.66
2017-02-23T05:03:27.576Z,933.65
2017-02-23T05:04:40.869Z,933.63
2017-02-23T05:05:54.156Z,933.62
2017-02-23T05:07:07.438Z,933.66
2017-02-23T05:09:47.128Z,933.63
2017-02-23T05:11:13.812Z,933.63
2017-02-23T05:12:27.101Z,933.64
2017-02-23T05:13:40.375Z,933.63
2017-02-23T05:14:53.100Z,933.6
2017-02-23T05:16:06.373Z,933.58
2017-02-23T05:17:19.644Z,933.56
2017-02-23T05:20:00.970Z,933.55
2017-02-23T05:21:13.674Z,933.55
2017-02-23T05:22:26.953Z,933.55
2017-02-23T05:23:40.468Z,933.53
2017-02-23T05:24:53.751Z,933.54
2017-02-23T05:26:07.034Z,933.51
2017-02-23T05:27:20.334Z,933.51
2017-02-23T05:28:33.883Z,933.5
2017-02-23T05:29:47.159Z,933.47
2017-02-23T05:30:59.880Z,933.46
2017-02-23T05:32:13.160Z,933.47
2017-02-23T05:33:25.869Z,933.45
2017-02-23T05:34:39.416Z,933.46
2017-02-23T05:35:52.698Z,933.41
2017-02-23T05:37:05.981Z,933.41
2017-02-23T05:38:18.683Z,933.44
2017-02-23T05:39:32.267Z,933.41
2017-02-23T05:40:45.539Z,933.45
2017-02-23T05:41:58.803Z,933.48
2017-02-23T05:43:12.103Z,933.48
2017-02-23T05:44:24.818Z,933.47
2017-02-23T05:45:38.397Z,933.47
2017-02-23T05:48:18.923Z,933.44
2017-02-23T05:49:32.198Z,933.4
2017-02-23T05:50:45.820Z,933.39
2017-02-23T05:51:59.101Z,933.39
2017-02-23T05:53:11.818Z,933.39
2017-02-23T05:54:25.099Z,933.39
2017-02-23T05:55:38.393Z,933.43
2017-02-23T05:57:05.642Z,933.45
2017-02-23T05:58:18.918Z,933.45
2017-02-23T05:59:31.504Z,933.48
2017-02-23T06:00:44.079Z,933.45
2017-02-23T06:01:56.660Z,933.45
2017-02-23T06:03:09.805Z,933.46
2017-02-23T06:04:22.953Z,933.46
2017-02-23T06:05:36.096Z,933.46
2017-02-23T06:06:49.230Z,933.44
2017-02-23T06:08:02.364Z,933.44
2017-02-23T06:09:14.947Z,933.48
2017-02-23T06:10:28.091Z,933.49
2017-02-23T06:11:41.242Z,933.49
2017-02-23T06:12:54.390Z,933.46
2017-02-23T06:14:07.534Z,933.48
2017-02-23T06:15:20.111Z,933.48
2017-02-23T06:16:33.518Z,933.49
2017-02-23T06:18:00.665Z,933.52
2017-02-23T06:19:13.809Z,933.49
2017-02-23T06:20:26.938Z,933.46
2017-02-23T06:21:39.515Z,933.47
2017-02-23T06:22:52.672Z,933.5
2017-02-23T06:24:05.823Z,933.49
2017-02-23T06:25:18.407Z,933.54
2017-02-23T06:26:31.567Z,933.59
2017-02-23T06:27:44.155Z,933.55
2017-02-23T06:28:56.730Z,933.53
2017-02-23T06:30:23.878Z,933.54
2017-02-23T06:31:37.021Z,933.54
2017-02-23T06:32:50.179Z,933.55
2017-02-23T06:34:03.318Z,933.52
2017-02-23T06:35:16.452Z,933.53
2017-02-23T06:36:29.596Z,933.53
2017-02-23T06:37:42.726Z,933.57
2017-02-23T06:38:55.497Z,933.56
2017-02-23T06:40:08.083Z,933.56
2017-02-23T06:41:21.220Z,933.56
2017-02-23T06:42:34.369Z,933.56
2017-02-23T06:43:47.945Z,933.55
2017-02-23T06:45:01.227Z,933.55
2017-02-23T06:46:14.519Z,933.55
2017-02-23T06:47:27.788Z,933.52
2017-02-23T06:48:41.080Z,933.54
2017-02-23T06:49:54.379Z,933.56
2017-02-23T06:51:07.659Z,933.59
2017-02-23T06:52:20.941Z,933.59
2017-02-23T06:53:34.220Z,933.59
2017-02-23T06:54:47.173Z,933.64
2017-02-23T06:56:00.451Z,933.61
2017-02-23T06:57:13.726Z,933.62
2017-02-23T06:58:26.994Z,933.62
2017-02-23T06:59:39.173Z,933.64
2017-02-23T07:00:52.470Z,933.64
2017-02-23T07:02:05.759Z,933.66
2017-02-23T07:03:18.455Z,933.63
2017-02-23T07:04:31.170Z,933.64
2017-02-23T07:05:44.438Z,933.61
2017-02-23T07:06:57.735Z,933.64
2017-02-23T07:08:11.034Z,933.66
2017-02-23T07:09:24.300Z,933.63
2017-02-23T07:10:38.215Z,933.7
2017-02-23T07:11:51.519Z,933.65
2017-02-23T07:13:04.787Z,933.68
2017-02-23T07:14:18.076Z,933.67
2017-02-23T07:15:30.785Z,933.66
2017-02-23T07:16:44.347Z,933.68
2017-02-23T07:17:57.617Z,933.69
2017-02-23T07:19:10.344Z,933.68
2017-02-23T07:20:23.051Z,933.68
2017-02-23T07:21:36.652Z,933.68
2017-02-23T07:22:49.925Z,933.69
2017-02-23T07:24:03.212Z,933.68
2017-02-23T07:25:15.914Z,933.67
2017-02-23T07:26:29.210Z,933.7
2017-02-23T07:27:42.462Z,933.69
2017-02-23T07:28:55.591Z,933.73
2017-02-23T07:30:08.731Z,933.75
2017-02-23T07:31:21.887Z,933.73
2017-02-23T07:32:35.029Z,933.71
2017-02-23T07:33:47.609Z,933.66
2017-02-23T07:35:00.747Z,933.67
2017-02-23T07:36:13.333Z,933.69
2017-02-23T07:37:25.920Z,933.64
2017-02-23T07:38:39.061Z,933.72
2017-02-23T07:39:51.639Z,933.7
2017-02-23T07:41:04.809Z,933.7
2017-02-23T07:42:17.387Z,933.69
2017-02-23T07:43:30.540Z,933.7
2017-02-23T07:44:43.696Z,933.7
2017-02-23T07:45:55.155Z,933.72
2017-02-23T07:47:07.732Z,933.78
2017-02-23T07:48:20.316Z,933.73
2017-02-23T07:49:33.707Z,933.78
2017-02-23T07:50:46.833Z,933.76
2017-02-23T07:51:59.968Z,933.81
2017-02-23T07:53:13.118Z,933.82
2017-02-23T07:54:26.554Z,933.84
2017-02-23T07:55:39.691Z,933.83
2017-02-23T07:58:19.417Z,933.88
2017-02-23T07:59:32.560Z,933.86
2017-02-23T08:00:45.707Z,933.88
2017-02-23T08:01:58.845Z,933.91
2017-02-23T08:03:25.984Z,933.99
2017-02-23T08:04:39.419Z,934
2017-02-23T08:05:52.545Z,933.95
2017-02-23T08:07:05.692Z,934.02
2017-02-23T08:08:18.838Z,934.03
2017-02-23T08:09:31.980Z,934.03
2017-02-23T08:12:12.008Z,934
2017-02-23T08:13:24.599Z,934
2017-02-23T08:14:37.736Z,933.99
2017-02-23T08:15:51.176Z,934
2017-02-23T08:17:04.317Z,934.04
2017-02-23T08:18:17.468Z,934.02
2017-02-23T08:19:44.866Z,934.01
2017-02-23T08:20:58.015Z,934.07
2017-02-23T08:22:11.175Z,934.04
2017-02-23T08:23:24.329Z,934.07
2017-02-23T08:24:37.493Z,934.07
2017-02-23T08:25:50.331Z,934.1
2017-02-23T08:27:03.463Z,934.09
2017-02-23T08:28:16.043Z,934.11
2017-02-23T08:29:29.185Z,934.09
2017-02-23T08:32:08.927Z,934.12
2017-02-23T08:33:22.084Z,934.12
2017-02-23T08:34:35.245Z,934.11
2017-02-23T08:35:48.656Z,934.1
2017-02-23T08:37:01.236Z,934.16
2017-02-23T08:38:28.376Z,934.17
2017-02-23T08:39:40.977Z,934.17
2017-02-23T08:40:54.107Z,934.15
2017-02-23T08:42:07.272Z,934.17
2017-02-23T08:43:19.852Z,934.16
2017-02-23T08:44:31.881Z,934.19
2017-02-23T08:45:45.019Z,934.18
2017-02-23T08:46:58.427Z,934.2
2017-02-23T08:48:10.469Z,934.23
2017-02-23T08:49:23.611Z,934.24
2017-02-23T08:50:36.210Z,934.28
2017-02-23T08:51:49.620Z,934.29
2017-02-23T08:54:29.932Z,934.35
2017-02-23T08:55:43.066Z,934.36
2017-02-23T08:56:56.445Z,934.39
2017-02-23T08:58:09.596Z,934.37
2017-02-23T08:59:21.171Z,934.4
2017-02-23T09:00:34.461Z,934.39
2017-02-23T09:01:47.731Z,934.43
2017-02-23T09:03:01.321Z,934.37
2017-02-23T09:04:14.072Z,934.38
2017-02-23T09:05:27.356Z,934.41
2017-02-23T09:06:40.632Z,934.44
2017-02-23T09:07:53.922Z,934.49
2017-02-23T09:09:07.220Z,934.48
2017-02-23T09:10:19.941Z,934.51
2017-02-23T09:11:33.252Z,934.49
2017-02-23T09:12:46.531Z,934.54
2017-02-23T09:14:13.788Z,934.56
2017-02-23T09:15:41.053Z,934.54
2017-02-23T09:16:54.334Z,934.57
2017-02-23T09:18:07.631Z,934.6
2017-02-23T09:19:34.316Z,934.6
2017-02-23T09:20:47.596Z,934.61
2017-02-23T09:22:00.897Z,934.62
2017-02-23T09:23:14.177Z,934.65
2017-02-23T09:24:27.461Z,934.64
2017-02-23T09:25:40.178Z,934.6
2017-02-23T09:26:53.452Z,934.63
2017-02-23T09:28:06.719Z,934.64
2017-02-23T09:29:20.250Z,934.65
2017-02-23T09:30:33.515Z,934.64
2017-02-23T09:31:46.212Z,934.66
2017-02-23T09:32:59.492Z,934.66
2017-02-23T09:34:26.739Z,934.64
2017-02-23T09:35:40.055Z,934.68
2017-02-23T09:36:53.339Z,934.67
2017-02-23T09:38:06.625Z,934.72
2017-02-23T09:39:20.161Z,934.72
2017-02-23T09:40:33.460Z,934.74
2017-02-23T09:41:46.747Z,934.74
2017-02-23T09:42:59.995Z,934.72
2017-02-23T09:44:13.143Z,934.77
2017-02-23T09:45:26.284Z,934.77
2017-02-23T09:46:39.423Z,934.79
2017-02-23T09:47:52.578Z,934.85
2017-02-23T09:49:05.716Z,934.84
2017-02-23T09:50:18.884Z,934.83
2017-02-23T09:51:32.021Z,934.87
2017-02-23T09:52:45.187Z,934.87
2017-02-23T09:53:58.348Z,934.91
2017-02-23T09:55:10.923Z,934.89
2017-02-23T09:56:24.321Z,934.89
2017-02-23T09:57:37.463Z,934.95
2017-02-23T09:58:50.610Z,934.97
2017-02-23T10:00:03.741Z,934.93
2017-02-23T10:01:31.125Z,934.96
2017-02-23T10:02:43.707Z,934.97
2017-02-23T10:03:56.877Z,934.97
2017-02-23T10:05:09.480Z,935
2017-02-23T10:06:22.378Z,934.97
2017-02-23T10:07:35.529Z,935
2017-02-23T10:08:48.678Z,935.03
2017-02-23T10:10:01.837Z,935.02
2017-02-23T10:11:14.412Z,934.99
2017-02-23T10:12:27.553Z,935.02
2017-02-23T10:13:40.692Z,935.01
2017-02-23T10:14:53.841Z,935.03
2017-02-23T10:16:06.985Z,935.05
2017-02-23T10:17:20.434Z,935.02
2017-02-23T10:18:33.589Z,935.02
2017-02-23T10:19:46.190Z,935.02
2017-02-23T10:20:59.335Z,935.03
2017-02-23T10:22:26.719Z,935.02
2017-02-23T10:23:53.862Z,935.04
2017-02-23T10:25:06.439Z,935.03
2017-02-23T10:26:19.026Z,935.05
2017-02-23T10:27:31.624Z,935.1
2017-02-23T10:28:44.211Z,935.12
2017-02-23T10:29:57.365Z,935.14
2017-02-23T10:31:10.006Z,935.14
2017-02-23T10:32:22.587Z,935.14
2017-02-23T10:33:35.434Z,935.18
2017-02-23T10:34:48.582Z,935.16
2017-02-23T10:36:15.729Z,935.13
2017-02-23T10:37:28.858Z,935.18
2017-02-23T10:38:42.000Z,935.19
2017-02-23T10:40:08.625Z,935.21
2017-02-23T10:41:21.196Z,935.18
2017-02-23T10:42:33.787Z,935.2
2017-02-23T10:43:46.945Z,935.18
2017-02-23T10:45:13.541Z,935.2
2017-02-23T10:46:26.689Z,935.22
2017-02-23T10:47:54.092Z,935.24
2017-02-23T10:49:07.235Z,935.19
2017-02-23T10:50:19.257Z,935.23
2017-02-23T10:51:32.400Z,935.25
2017-02-23T10:52:59.557Z,935.24
2017-02-23T10:54:12.137Z,935.24
2017-02-23T10:55:25.313Z,935.27
2017-02-23T10:56:38.449Z,935.25
2017-02-23T10:57:51.710Z,935.27
2017-02-23T10:59:18.972Z,935.27
2017-02-23T11:00:31.626Z,935.27
2017-02-23T11:01:45.078Z,935.25
2017-02-23T11:02:57.893Z,935.23
2017-02-23T11:04:11.157Z,935.26
2017-02-23T11:05:24.469Z,935.23
2017-02-23T11:06:51.215Z,935.26
2017-02-23T11:08:04.765Z,935.26
2017-02-23T11:09:18.073Z,935.26
2017-02-23T11:10:31.243Z,935.24
2017-02-23T11:11:44.395Z,935.28
2017-02-23T11:12:56.990Z,935.27
2017-02-23T11:14:10.532Z,935.32
2017-02-23T11:15:23.817Z,935.35
2017-02-23T11:16:36.520Z,935.37
2017-02-23T11:17:49.922Z,935.38
2017-02-23T11:19:16.651Z,935.39
2017-02-23T11:20:43.571Z,935.44
2017-02-23T11:21:57.039Z,935.43
2017-02-23T11:24:36.740Z,935.46
2017-02-23T11:25:50.196Z,935.43
2017-02-23T11:27:03.679Z,935.47
2017-02-23T11:28:15.982Z,935.48
2017-02-23T11:29:29.432Z,935.5
2017-02-23T11:30:42.915Z,935.5
2017-02-23T11:31:56.374Z,935.54
2017-02-23T11:33:09.247Z,935.54
2017-02-23T11:34:22.121Z,935.55
2017-02-23T11:35:35.713Z,935.56
2017-02-23T11:36:49.200Z,935.55
2017-02-23T11:38:02.667Z,935.6
2017-02-23T11:39:16.142Z,935.57
2017-02-23T11:40:29.609Z,935.6
2017-02-23T11:41:42.745Z,935.61
2017-02-23T11:43:10.147Z,935.64
2017-02-23T11:44:22.464Z,935.57
2017-02-23T11:45:35.938Z,935.56
2017-02-23T11:46:49.658Z,935.59
2017-02-23T11:48:03.113Z,935.58
2017-02-23T11:49:16.572Z,935.56
2017-02-23T11:50:30.024Z,935.58
2017-02-23T11:51:43.714Z,935.58
2017-02-23T11:53:10.965Z,935.55
2017-02-23T11:54:23.663Z,935.58
2017-02-23T11:55:36.406Z,935.56
2017-02-23T11:56:49.369Z,935.55
2017-02-23T11:58:02.133Z,935.55
2017-02-23T11:59:15.300Z,935.6
2017-02-23T12:00:27.891Z,935.55
2017-02-23T12:01:41.034Z,935.59
2017-02-23T12:02:53.630Z,935.65
2017-02-23T12:04:06.774Z,935.65
2017-02-23T12:05:19.911Z,935.64
2017-02-23T12:06:33.089Z,935.69
2017-02-23T12:07:46.533Z,935.69
2017-02-23T12:08:59.686Z,935.7
2017-02-23T12:10:26.836Z,935.69
2017-02-23T12:11:40.002Z,935.66
2017-02-23T12:12:52.845Z,935.72
2017-02-23T12:14:20.008Z,935.73
2017-02-23T12:15:33.148Z,935.69
2017-02-23T12:16:45.170Z,935.7
2017-02-23T12:17:58.314Z,935.67
2017-02-23T12:19:10.903Z,935.65
2017-02-23T12:21:51.204Z,935.65
2017-02-23T12:23:03.794Z,935.65
2017-02-23T12:24:16.950Z,935.55
2017-02-23T12:25:30.090Z,935.62
2017-02-23T12:26:57.239Z,935.63
2017-02-23T12:28:10.385Z,935.63
2017-02-23T12:31:04.696Z,935.63
2017-02-23T12:32:17.860Z,935.66
2017-02-23T12:33:31.285Z,935.62
2017-02-23T12:34:58.430Z,935.65
2017-02-23T12:36:11.034Z,935.66
2017-02-23T12:37:24.178Z,935.68
2017-02-23T12:38:51.623Z,935.65
2017-02-23T12:40:04.796Z,935.65
2017-02-23T12:41:17.942Z,935.68
2017-02-23T12:42:31.087Z,935.62
2017-02-23T12:43:43.786Z,935.67
2017-02-23T12:44:56.794Z,935.6
2017-02-23T12:46:23.517Z,935.6
2017-02-23T12:47:36.783Z,935.65
2017-02-23T12:50:31.305Z,935.66
2017-02-23T12:51:44.586Z,935.66
2017-02-23T12:52:57.312Z,935.65
2017-02-23T12:54:10.619Z,935.62
2017-02-23T12:55:23.906Z,935.67
2017-02-23T12:56:37.244Z,935.61
2017-02-23T12:57:49.403Z,935.63
2017-02-23T12:59:02.108Z,935.57
2017-02-23T13:00:28.816Z,935.57
2017-02-23T13:01:41.554Z,935.59
2017-02-23T13:02:54.841Z,935.67
2017-02-23T13:04:08.175Z,935.61
2017-02-23T13:05:34.866Z,935.65
2017-02-23T13:08:14.854Z,935.51
2017-02-23T13:09:28.137Z,935.54
2017-02-23T13:10:41.425Z,935.56
2017-02-23T13:11:54.711Z,935.47
2017-02-23T13:13:07.987Z,935.48
2017-02-23T13:14:20.707Z,935.52
2017-02-23T13:15:48.241Z,935.52
2017-02-23T13:17:01.535Z,935.49
2017-02-23T13:18:14.257Z,935.41
2017-02-23T13:19:41.514Z,935.47
2017-02-23T13:20:54.798Z,935.46
2017-02-23T13:22:08.079Z,935.42
2017-02-23T13:23:20.807Z,935.5
2017-02-23T13:24:34.107Z,935.47
2017-02-23T13:25:47.415Z,935.46
2017-02-23T13:27:00.703Z,935.46
2017-02-23T13:28:13.977Z,935.45
2017-02-23T13:29:27.277Z,935.46
2017-02-23T13:30:40.561Z,935.44
2017-02-23T13:31:53.842Z,935.39
2017-02-23T13:33:06.559Z,935.42
2017-02-23T13:34:19.290Z,935.44
2017-02-23T13:35:32.579Z,935.4
2017-02-23T13:36:45.883Z,935.41
2017-02-23T13:37:59.205Z,935.42
2017-02-23T13:39:12.504Z,935.39
2017-02-23T13:40:25.796Z,935.36
2017-02-23T13:41:38.563Z,935.38
2017-02-23T13:42:51.893Z,935.37
2017-02-23T13:44:05.200Z,935.27
2017-02-23T13:45:18.494Z,935.37
2017-02-23T13:46:46.062Z,935.37
2017-02-23T13:47:58.786Z,935.36
2017-02-23T13:49:26.136Z,935.38
2017-02-23T13:50:38.932Z,935.34
2017-02-23T13:51:51.708Z,935.28
2017-02-23T13:53:05.069Z,935.28
2017-02-23T13:54:17.817Z,935.23
2017-02-23T13:55:31.095Z,935.23
2017-02-23T13:56:44.384Z,935.23
2017-02-23T13:57:57.951Z,935.29
2017-02-23T13:59:11.241Z,935.23
2017-02-23T14:01:51.829Z,935.21
2017-02-23T14:03:05.423Z,935.21
2017-02-23T14:04:18.727Z,935.16
2017-02-23T14:05:31.442Z,935.16
2017-02-23T14:06:44.766Z,935.14
2017-02-23T14:07:58.064Z,935.14
2017-02-23T14:09:10.987Z,935.08
2017-02-23T14:10:24.270Z,935.1
2017-02-23T14:11:37.550Z,935.02
2017-02-23T14:12:50.831Z,935.01
2017-02-23T14:14:03.982Z,935.05
2017-02-23T14:15:17.158Z,935.02
2017-02-23T14:16:30.324Z,934.98
2017-02-23T14:17:43.479Z,935.07
2017-02-23T14:18:56.640Z,935.04
2017-02-23T14:20:09.254Z,935
2017-02-23T14:21:21.848Z,934.99
2017-02-23T14:22:35.023Z,934.99
2017-02-23T14:24:02.179Z,935.02
2017-02-23T14:25:15.333Z,935
2017-02-23T14:26:28.485Z,935
2017-02-23T14:27:41.644Z,935.01
2017-02-23T14:28:54.804Z,934.98
2017-02-23T14:30:07.956Z,934.95
2017-02-23T14:31:35.109Z,934.95
2017-02-23T14:34:15.152Z,934.86
2017-02-23T14:35:42.314Z,934.9
2017-02-23T14:36:55.448Z,934.91
2017-02-23T14:38:08.063Z,934.9
2017-02-23T14:39:21.501Z,934.86
2017-02-23T14:40:34.665Z,934.83
2017-02-23T14:41:47.838Z,934.78
2017-02-23T14:43:14.541Z,934.81
2017-02-23T14:44:26.583Z,934.76
2017-02-23T14:45:42.123Z,934.76
2017-02-23T14:46:55.273Z,934.76
2017-02-23T14:48:08.895Z,934.79
2017-02-23T14:49:21.758Z,934.82
2017-02-23T14:50:36.148Z,934.79
2017-02-23T14:52:03.594Z,934.83
2017-02-23T14:53:15.635Z,934.78
2017-02-23T14:54:28.783Z,934.77
2017-02-23T14:55:41.936Z,934.73
2017-02-23T14:56:55.072Z,934.7
2017-02-23T14:58:08.220Z,934.67
2017-02-23T14:59:21.376Z,934.66
2017-02-23T15:00:34.537Z,934.66
2017-02-23T15:01:47.694Z,934.59
2017-02-23T15:03:00.859Z,934.58
2017-02-23T15:04:14.010Z,934.62
2017-02-23T15:07:07.203Z,934.59
2017-02-23T15:08:20.364Z,934.57
2017-02-23T15:09:33.447Z,934.56
2017-02-23T15:10:46.890Z,934.5
2017-02-23T15:12:00.029Z,934.47
2017-02-23T15:13:12.617Z,934.45
2017-02-23T15:14:25.225Z,934.39
2017-02-23T15:15:52.372Z,934.38
2017-02-23T15:17:05.541Z,934.31
2017-02-23T15:18:18.145Z,934.35
2017-02-23T15:21:12.453Z,934.29
2017-02-23T15:22:24.480Z,934.23
2017-02-23T15:23:37.639Z,934.17
2017-02-23T15:24:50.791Z,934.16
2017-02-23T15:26:03.928Z,934.19
2017-02-23T15:27:16.222Z,934.21
2017-02-23T15:28:29.384Z,934.17
2017-02-23T15:29:42.538Z,934.17
2017-02-23T15:32:22.602Z,934.12
2017-02-23T15:33:35.198Z,934.11
2017-02-23T15:34:48.362Z,934.12
2017-02-23T15:36:02.103Z,934.13
2017-02-23T15:37:15.781Z,934.09
2017-02-23T15:38:28.390Z,934.12
2017-02-23T15:39:41.546Z,934.06
2017-02-23T15:40:54.140Z,934.07
2017-02-23T15:42:21.303Z,934.08
2017-02-23T15:43:34.453Z,934.08
2017-02-23T15:44:47.601Z,934.05
2017-02-23T15:46:00.760Z,934.02
2017-02-23T15:48:39.959Z,934
2017-02-23T15:49:53.107Z,933.98
2017-02-23T15:51:06.279Z,933.87
2017-02-23T15:52:18.889Z,933.91
2017-02-23T15:53:32.057Z,933.92
2017-02-23T15:54:45.389Z,933.88
2017-02-23T15:55:58.545Z,933.88
2017-02-23T15:57:11.132Z,933.86
2017-02-23T15:58:24.271Z,933.86
2017-02-23T15:59:37.454Z,933.82
2017-02-23T16:00:50.591Z,933.88